Time;durP1;ratioP1;P1;durP2;ratioP2;P2;SDS_P1;SDS_P2;PMS_P1;PMS_P2;Temp;Humidity;BMP_temperature;BMP_pressure;BME280_temperature;BME280_humidity;BME280_pressure;Samples;Min_cycle;Max_cycle;Signal;HPM_P1;HPM_P2
2023/01/18 00:00:45;;;;;;;5.97;2.90;;;1.50;73.70;;;;;;5085472;28;20023;-69
2023/01/18 00:03:12;;;;;;;4.60;2.67;;;1.50;73.70;;;;;;5095199;28;20036;-68
2023/01/18 00:05:39;;;;;;;6.32;3.08;;;1.50;73.70;;;;;;5100065;28;20107;-67
2023/01/18 00:08:12;;;;;;;3.65;2.45;;;1.50;73.80;;;;;;5095435;28;20423;-67
2023/01/18 00:10:39;;;;;;;4.28;2.47;;;1.50;73.70;;;;;;5079261;28;20505;-67
2023/01/18 00:13:05;;;;;;;5.25;2.97;;;1.40;73.50;;;;;;5079111;28;20032;-68
2023/01/18 00:15:35;;;;;;;3.92;2.72;;;1.40;73.50;;;;;;5088131;28;20035;-68
2023/01/18 00:18:01;;;;;;;2.53;2.33;;;1.40;73.60;;;;;;5096343;28;20371;-67
2023/01/18 00:20:29;;;;;;;5.40;2.08;;;1.40;73.60;;;;;;5090220;28;20040;-68
2023/01/18 00:22:55;;;;;;;4.85;3.05;;;1.40;73.60;;;;;;5094661;28;20027;-67
2023/01/18 00:25:22;;;;;;;6.70;3.00;;;1.40;73.60;;;;;;5089122;28;20047;-68
2023/01/18 00:27:51;;;;;;;4.90;2.13;;;1.40;73.50;;;;;;5092203;28;20035;-67
2023/01/18 00:30:22;;;;;;;6.05;2.70;;;1.30;73.50;;;;;;5090448;28;20066;-67
2023/01/18 00:32:49;;;;;;;3.30;2.30;;;1.30;73.50;;;;;;5090911;28;20032;-68
2023/01/18 00:35:14;;;;;;;3.17;2.53;;;1.30;73.60;;;;;;5088724;28;20037;-68
2023/01/18 00:37:41;;;;;;;3.40;2.70;;;1.20;73.70;;;;;;5071637;28;20432;-68
2023/01/18 00:40:07;;;;;;;3.53;2.55;;;1.20;73.80;;;;;;5089325;28;20107;-68
2023/01/18 00:45:28;;;;;;;2.25;2.00;;;1.20;73.80;;;;;;5022534;28;20121;-68
2023/01/18 00:47:54;;;;;;;5.03;2.58;;;1.20;74.00;;;;;;5076589;28;20090;-67
2023/01/18 00:50:21;;;;;;;5.63;3.13;;;1.20;74.00;;;;;;5069181;28;20082;-68
2023/01/18 00:52:47;;;;;;;4.00;2.67;;;1.20;73.90;;;;;;5096713;28;20027;-67
2023/01/18 00:55:15;;;;;;;4.93;2.85;;;1.20;73.90;;;;;;5073552;28;20032;-68
2023/01/18 00:57:41;;;;;;;5.65;2.90;;;1.20;73.90;;;;;;5097585;28;20043;-67
2023/01/18 01:00:10;;;;;;;3.90;2.30;;;1.20;74.00;;;;;;5091923;28;20012;-68
2023/01/18 01:02:40;;;;;;;3.92;2.60;;;1.20;74.10;;;;;;5090534;28;20032;-64
2023/01/18 01:08:15;;;;;;;7.90;2.88;;;1.20;74.30;;;;;;5109909;28;20042;-68
2023/01/18 01:10:47;;;;;;;5.72;3.25;;;1.10;74.40;;;;;;5098657;28;20067;-67
2023/01/18 01:27:07;;;;;;;3.65;1.95;;;1.00;74.50;;;;;;5100781;28;20050;-68
2023/01/18 01:29:32;;;;;;;4.97;2.83;;;1.10;74.50;;;;;;5093105;28;20028;-68
2023/01/18 01:31:58;;;;;;;3.88;2.88;;;1.00;74.50;;;;;;5095664;28;20035;-68
2023/01/18 01:34:25;;;;;;;3.90;2.45;;;1.00;74.60;;;;;;5092603;28;20032;-68
2023/01/18 01:36:51;;;;;;;4.25;3.00;;;1.00;74.80;;;;;;5084314;28;20479;-68
2023/01/18 01:39:17;;;;;;;4.70;3.30;;;1.00;74.90;;;;;;5091760;28;20023;-68
2023/01/18 01:41:43;;;;;;;6.40;2.85;;;1.00;74.80;;;;;;5098326;28;20040;-63
2023/01/18 01:44:22;;;;;;;3.58;2.67;;;1.00;74.90;;;;;;5092726;28;20031;-63
2023/01/18 01:46:51;;;;;;;3.95;2.55;;;1.00;74.90;;;;;;5107172;28;20066;-67
2023/01/18 01:49:32;;;;;;;7.05;2.88;;;0.90;74.90;;;;;;5112302;28;20023;-68
2023/01/18 01:52:03;;;;;;;7.77;2.97;;;0.90;74.90;;;;;;5100023;28;20028;-68
2023/01/18 01:54:53;;;;;;;4.18;2.45;;;0.90;74.80;;;;;;5098875;28;20289;-67
2023/01/18 01:57:31;;;;;;;5.85;2.83;;;1.00;74.70;;;;;;5091164;28;20399;-67
2023/01/18 02:00:08;;;;;;;4.75;2.60;;;0.90;74.70;;;;;;5099082;28;20024;-63
2023/01/18 02:02:35;;;;;;;3.42;2.63;;;0.90;74.70;;;;;;5095292;28;20058;-63
2023/01/18 02:05:04;;;;;;;2.80;2.08;;;0.90;74.70;;;;;;5103238;28;20397;-62
2023/01/18 02:07:31;;;;;;;7.00;3.78;;;0.90;74.70;;;;;;5104302;28;20432;-62
2023/01/18 02:09:59;;;;;;;4.93;2.75;;;0.90;74.70;;;;;;5102148;28;20045;-62
2023/01/18 02:12:27;;;;;;;4.00;3.10;;;0.90;74.70;;;;;;5084603;28;20028;-62
2023/01/18 02:14:54;;;;;;;3.67;2.63;;;0.90;74.70;;;;;;5102818;28;20486;-63
2023/01/18 02:17:50;;;;;;;3.58;2.65;;;0.90;74.80;;;;;;5080899;28;20028;-62
2023/01/18 02:20:34;;;;;;;6.75;2.47;;;0.90;74.70;;;;;;5099557;28;20036;-64
2023/01/18 02:23:25;;;;;;;5.35;2.88;;;0.80;74.80;;;;;;5095634;28;20032;-63
2023/01/18 02:26:15;;;;;;;5.72;2.67;;;0.80;74.80;;;;;;5099605;28;20116;-63
2023/01/18 02:28:48;;;;;;;7.25;3.50;;;0.80;74.90;;;;;;5095203;28;20065;-63
2023/01/18 02:31:20;;;;;;;4.05;2.75;;;0.80;74.90;;;;;;5091683;28;20066;-63
2023/01/18 02:33:54;;;;;;;6.70;3.03;;;0.80;75.00;;;;;;5090246;28;20039;-68
2023/01/18 02:36:42;;;;;;;4.97;2.80;;;0.70;75.10;;;;;;5100066;28;20031;-68
2023/01/18 02:39:37;;;;;;;4.45;2.92;;;0.80;75.10;;;;;;5105857;28;20076;-62
2023/01/18 02:48:31;;;;;;;4.43;2.28;;;0.70;75.10;;;;;;5094470;28;20071;-62
2023/01/18 02:50:57;;;;;;;6.60;3.67;;;0.70;75.30;;;;;;5106223;28;20474;-63
2023/01/18 02:53:22;;;;;;;4.68;3.35;;;0.60;75.30;;;;;;5106988;28;20036;-63
2023/01/18 02:56:02;;;;;;;8.43;3.13;;;0.60;75.20;;;;;;5086063;28;20027;-63
2023/01/18 02:58:33;;;;;;;4.10;2.38;;;0.60;75.20;;;;;;5103028;28;20098;-68
2023/01/18 03:01:26;;;;;;;6.22;3.47;;;0.60;75.20;;;;;;5090611;28;20158;-67
2023/01/18 03:03:58;;;;;;;8.00;4.30;;;0.60;75.30;;;;;;5074854;28;20462;-67
2023/01/18 03:06:28;;;;;;;4.28;2.80;;;0.60;75.20;;;;;;5107731;28;20032;-68
2023/01/18 03:08:55;;;;;;;5.47;3.42;;;0.60;75.20;;;;;;5083000;28;20112;-67
2023/01/18 03:11:52;;;;;;;7.60;2.13;;;0.60;75.10;;;;;;5083627;28;20115;-67
2023/01/18 03:14:33;;;;;;;5.82;3.05;;;0.60;75.10;;;;;;5102158;28;20497;-67
2023/01/18 03:17:21;;;;;;;3.87;2.43;;;0.60;75.10;;;;;;5102268;28;20027;-68
2023/01/18 03:20:07;;;;;;;6.50;3.38;;;0.50;75.10;;;;;;5095337;28;20040;-67
2023/01/18 03:25:52;;;;;;;4.70;2.60;;;0.50;75.00;;;;;;5089776;28;20046;-66
2023/01/18 03:34:36;;;;;;;2.72;2.10;;;0.40;75.00;;;;;;5097188;28;20067;-67
2023/01/18 03:37:08;;;;;;;9.48;2.92;;;0.40;75.00;;;;;;5077359;28;20086;-67
2023/01/18 03:39:53;;;;;;;;;;;0.40;75.00;;;;;;5062711;28;20510;-67
2023/01/18 03:42:29;;;;;;;6.18;2.60;;;0.40;75.00;;;;;;5095880;28;20285;-67
2023/01/18 03:45:21;;;;;;;4.25;3.13;;;0.30;75.00;;;;;;5088260;28;20077;-67
2023/01/18 03:47:49;;;;;;;3.78;2.20;;;0.30;74.80;;;;;;5080382;28;20047;-67
2023/01/18 03:50:15;;;;;;;3.35;2.63;;;0.30;75.00;;;;;;5088593;28;20079;-62
2023/01/18 03:52:43;;;;;;;6.40;2.67;;;0.30;75.00;;;;;;5089504;28;20028;-67
2023/01/18 03:55:39;;;;;;;5.20;3.20;;;0.30;75.10;;;;;;5070389;28;20028;-63
2023/01/18 03:58:10;;;;;;;3.50;2.58;;;0.30;75.00;;;;;;5082298;28;20028;-62
2023/01/18 04:00:38;;;;;;;4.65;2.78;;;0.30;75.10;;;;;;5089495;28;20081;-67
2023/01/18 04:03:04;;;;;;;5.72;3.40;;;0.30;75.10;;;;;;5090126;28;20026;-67
2023/01/18 04:05:30;;;;;;;3.80;2.25;;;0.30;75.10;;;;;;5080498;28;20117;-67
2023/01/18 04:07:56;;;;;;;3.17;2.42;;;0.30;75.10;;;;;;5071651;28;20109;-64
2023/01/18 04:10:22;;;;;;;4.55;2.88;;;0.30;75.00;;;;;;5104828;28;20501;-63
2023/01/18 04:12:48;;;;;;;7.10;2.83;;;0.30;75.00;;;;;;5092715;28;20063;-63
2023/01/18 04:15:14;;;;;;;4.50;3.38;;;0.20;74.90;;;;;;5087094;28;20533;-62
2023/01/18 04:17:39;;;;;;;4.55;3.00;;;0.20;74.90;;;;;;5088416;28;20032;-67
2023/01/18 04:20:06;;;;;;;7.00;2.45;;;0.20;75.00;;;;;;5091898;28;20036;-67
2023/01/18 04:22:32;;;;;;;5.60;3.03;;;0.20;75.00;;;;;;5095155;28;20025;-63
2023/01/18 04:24:58;;;;;;;6.90;3.88;;;0.20;74.90;;;;;;5089749;28;20020;-62
2023/01/18 04:27:26;;;;;;;3.75;2.72;;;0.20;75.00;;;;;;5093967;28;20674;-63
2023/01/18 04:29:52;;;;;;;3.33;2.30;;;0.20;75.00;;;;;;5069114;28;20016;-67
2023/01/18 04:32:18;;;;;;;8.95;3.10;;;0.20;75.10;;;;;;5090579;28;20032;-68
2023/01/18 04:34:43;;;;;;;5.18;2.80;;;0.20;75.20;;;;;;5088889;28;20032;-67
2023/01/18 04:37:09;;;;;;;5.82;2.97;;;0.20;75.20;;;;;;5077220;28;20032;-67
2023/01/18 04:39:35;;;;;;;4.22;3.13;;;0.10;75.40;;;;;;5093879;28;20056;-67
2023/01/18 04:42:01;;;;;;;5.00;3.20;;;0.10;75.60;;;;;;5080223;28;20016;-67
2023/01/18 04:44:27;;;;;;;5.68;3.28;;;0.10;75.70;;;;;;5091939;28;20039;-67
2023/01/18 04:46:52;;;;;;;4.00;2.30;;;0.10;75.80;;;;;;5083252;28;20035;-63
2023/01/18 04:49:18;;;;;;;3.67;2.55;;;0.10;76.00;;;;;;5095533;28;20032;-63
2023/01/18 04:51:45;;;;;;;4.45;2.55;;;0.10;76.00;;;;;;5101472;28;20059;-63
2023/01/18 04:54:14;;;;;;;9.85;2.70;;;0.10;76.10;;;;;;5093270;28;20024;-67
2023/01/18 04:56:40;;;;;;;5.72;3.22;;;0.10;76.30;;;;;;5099099;28;20036;-62
2023/01/18 04:59:05;;;;;;;6.03;3.92;;;0.10;76.40;;;;;;5089819;28;20027;-62
2023/01/18 05:01:32;;;;;;;6.10;3.08;;;0.10;76.40;;;;;;5076188;28;20023;-67
2023/01/18 05:03:58;;;;;;;4.70;2.50;;;0.10;76.40;;;;;;5072927;28;20123;-68
2023/01/18 05:06:24;;;;;;;5.78;3.05;;;0.10;76.40;;;;;;5097747;28;20024;-67
2023/01/18 05:08:50;;;;;;;5.15;2.53;;;0.10;76.30;;;;;;5093630;28;20608;-68
2023/01/18 05:11:19;;;;;;;3.95;2.67;;;0.10;76.10;;;;;;5073287;28;20028;-63
2023/01/18 05:13:45;;;;;;;4.43;3.10;;;0.10;75.90;;;;;;5088842;28;20024;-64
2023/01/18 05:16:19;;;;;;;6.35;2.75;;;0.00;75.80;;;;;;5099621;28;20031;-66
2023/01/18 05:18:46;;;;;;;6.85;2.70;;;0.00;75.70;;;;;;5096524;28;20093;-67
2023/01/18 05:21:12;;;;;;;5.18;3.03;;;0.00;75.50;;;;;;5094127;28;20038;-63
2023/01/18 05:23:41;;;;;;;4.35;2.95;;;0.00;75.60;;;;;;5099901;28;20035;-63
2023/01/18 05:26:14;;;;;;;6.43;3.25;;;-0.10;75.70;;;;;;5097000;28;20578;-67
2023/01/18 05:28:40;;;;;;;3.10;2.55;;;-0.10;75.90;;;;;;5093572;28;20115;-63
2023/01/18 05:31:07;;;;;;;3.50;2.70;;;-0.10;76.00;;;;;;5103308;28;20025;-68
2023/01/18 05:33:32;;;;;;;6.07;3.33;;;-0.10;76.20;;;;;;5099001;28;20027;-68
2023/01/18 05:35:58;;;;;;;5.10;3.20;;;-0.10;76.40;;;;;;5104398;28;20019;-68
2023/01/18 05:38:24;;;;;;;4.00;3.50;;;-0.10;77.00;;;;;;5099822;28;20028;-68
2023/01/18 05:40:52;;;;;;;3.60;2.20;;;-0.10;76.30;;;;;;5093089;28;20848;-66
2023/01/18 05:43:19;;;;;;;6.35;3.03;;;-0.10;76.20;;;;;;5085736;28;20081;-67
2023/01/18 05:45:45;;;;;;;4.50;3.10;;;-0.10;76.20;;;;;;5075684;28;20034;-67
2023/01/18 05:48:10;;;;;;;5.45;2.78;;;-0.10;76.10;;;;;;5073873;28;20027;-67
2023/01/18 05:50:42;;;;;;;6.63;3.40;;;-0.10;76.00;;;;;;5093999;28;20073;-67
2023/01/18 05:53:08;;;;;;;4.63;2.92;;;-0.10;75.90;;;;;;5091376;28;20066;-67
2023/01/18 05:55:34;;;;;;;6.40;3.05;;;-0.10;75.80;;;;;;5093221;28;20028;-68
2023/01/18 05:58:00;;;;;;;5.82;3.20;;;-0.10;75.70;;;;;;5089573;28;20020;-68
2023/01/18 06:00:25;;;;;;;5.80;2.42;;;-0.10;75.70;;;;;;5088797;28;20051;-63
2023/01/18 06:02:52;;;;;;;4.90;2.63;;;-0.20;75.60;;;;;;5075155;28;20621;-67
2023/01/18 06:05:19;;;;;;;5.13;3.17;;;-0.20;75.60;;;;;;5086448;28;20024;-68
2023/01/18 06:07:46;;;;;;;4.07;2.60;;;-0.20;75.70;;;;;;5090245;28;20016;-67
2023/01/18 06:10:12;;;;;;;5.90;2.85;;;-0.20;75.60;;;;;;5103069;28;20020;-68
2023/01/18 06:12:38;;;;;;;2.90;2.63;;;-0.20;75.60;;;;;;5099067;28;20031;-68
2023/01/18 06:15:05;;;;;;;3.38;2.65;;;-0.30;76.20;;;;;;5102758;28;20069;-67
2023/01/18 06:17:31;;;;;;;6.13;3.03;;;-0.30;75.60;;;;;;5087003;28;20127;-67
2023/01/18 06:19:57;;;;;;;6.57;3.03;;;-0.20;75.60;;;;;;5074666;28;20079;-63
2023/01/18 06:22:22;;;;;;;4.68;3.25;;;-0.20;75.50;;;;;;5071030;28;20083;-63
2023/01/18 06:24:48;;;;;;;4.65;2.95;;;-0.30;75.40;;;;;;5071489;28;20069;-63
2023/01/18 06:27:14;;;;;;;4.07;2.42;;;-0.30;75.40;;;;;;5086427;28;20537;-63
2023/01/18 06:29:40;;;;;;;5.07;2.90;;;-0.30;75.50;;;;;;5091958;28;20032;-64
2023/01/18 06:32:06;;;;;;;3.88;2.85;;;-0.30;75.50;;;;;;5100707;28;20394;-68
2023/01/18 06:34:32;;;;;;;4.65;2.95;;;-0.30;75.50;;;;;;5098655;28;20410;-67
2023/01/18 06:36:58;;;;;;;5.10;2.50;;;-0.30;75.60;;;;;;5101689;28;20058;-67
2023/01/18 06:39:24;;;;;;;3.88;3.03;;;-0.30;75.60;;;;;;5088252;28;20487;-68
2023/01/18 06:41:50;;;;;;;3.90;3.08;;;-0.30;75.60;;;;;;5106145;28;20378;-67
2023/01/18 06:44:16;;;;;;;4.32;2.55;;;-0.30;76.10;;;;;;5103574;28;20024;-67
2023/01/18 06:46:45;;;;;;;5.05;3.08;;;-0.30;75.50;;;;;;5083329;28;20036;-67
2023/01/18 06:49:11;;;;;;;3.22;2.35;;;-0.40;75.40;;;;;;5089619;28;20024;-67
2023/01/18 06:51:37;;;;;;;6.28;2.28;;;-0.40;75.40;;;;;;5105221;28;20513;-67
2023/01/18 06:54:04;;;;;;;3.63;2.42;;;-0.40;75.50;;;;;;5106151;28;20024;-68
2023/01/18 06:56:30;;;;;;;6.32;3.08;;;-0.40;75.40;;;;;;5104811;28;20039;-67
2023/01/18 06:58:57;;;;;;;6.68;3.15;;;-0.40;75.40;;;;;;5104391;28;20151;-68
2023/01/18 07:01:24;;;;;;;3.90;2.67;;;-0.40;75.40;;;;;;5076839;28;20028;-67
2023/01/18 07:03:50;;;;;;;4.05;2.22;;;-0.40;75.40;;;;;;5064066;28;20027;-67
2023/01/18 07:06:16;;;;;;;4.68;3.00;;;-0.40;75.50;;;;;;5094387;28;20051;-67
2023/01/18 07:08:42;;;;;;;4.45;2.55;;;-0.40;75.50;;;;;;5091079;28;20020;-68
2023/01/18 07:11:10;;;;;;;5.47;2.78;;;-0.40;75.50;;;;;;5108960;28;20505;-64
2023/01/18 07:13:42;;;;;;;5.22;2.65;;;-0.40;75.50;;;;;;5107554;28;20108;-63
2023/01/18 07:16:12;;;;;;;3.72;2.47;;;-0.40;75.50;;;;;;5105185;28;20020;-64
2023/01/18 07:18:42;;;;;;;6.18;2.42;;;-0.40;76.10;;;;;;5098278;28;20050;-69
2023/01/18 07:21:09;;;;;;;3.97;2.42;;;-0.40;75.60;;;;;;5072443;28;20024;-72
2023/01/18 07:23:37;;;;;;;4.93;2.65;;;-0.40;75.60;;;;;;5104531;28;20031;-66
2023/01/18 07:26:15;;;;;;;4.15;2.88;;;-0.40;75.60;;;;;;5085211;28;20450;-66
2023/01/18 07:28:42;;;;;;;4.85;2.65;;;-0.40;75.70;;;;;;5091598;28;20032;-75
2023/01/18 07:31:08;;;;;;;4.20;2.75;;;-0.40;75.60;;;;;;5099605;28;20523;-66
2023/01/18 07:33:34;;;;;;;4.10;2.50;;;-0.50;75.70;;;;;;5069800;28;20435;-73
2023/01/18 07:36:03;;;;;;;2.70;2.40;;;-0.40;75.70;;;;;;5094434;28;20027;-76
2023/01/18 07:38:29;;;;;;;5.40;3.22;;;-0.50;75.70;;;;;;5089364;28;20487;-76
2023/01/18 07:41:22;;;;;;;4.72;3.03;;;-0.50;75.70;;;;;;5078691;28;20026;-65
2023/01/18 07:43:47;;;;;;;4.63;2.53;;;-0.40;75.70;;;;;;5103748;28;20532;-68
2023/01/18 07:46:19;;;;;;;3.88;2.75;;;-0.40;75.80;;;;;;5102779;28;20059;-75
2023/01/18 07:48:47;;;;;;;6.07;2.43;;;-0.40;75.80;;;;;;5105726;28;20513;-73
2023/01/18 07:51:12;;;;;;;4.10;2.38;;;-0.40;75.70;;;;;;5101763;28;20126;-70
2023/01/18 07:53:38;;;;;;;6.38;2.78;;;-0.40;75.70;;;;;;5089728;28;20467;-69
2023/01/18 07:56:07;;;;;;;5.60;3.00;;;-0.40;75.70;;;;;;5104361;28;20036;-74
2023/01/18 07:58:34;;;;;;;2.92;2.63;;;-0.40;75.70;;;;;;5090893;28;20024;-68
2023/01/18 08:01:11;;;;;;;3.85;2.45;;;-0.40;75.70;;;;;;5097038;28;20390;-73
2023/01/18 08:03:37;;;;;;;3.95;2.72;;;-0.40;75.70;;;;;;5111884;28;20026;-72
2023/01/18 08:06:05;;;;;;;5.32;2.72;;;-0.40;75.80;;;;;;5070718;28;20035;-74
2023/01/18 08:08:30;;;;;;;2.88;2.03;;;-0.40;75.90;;;;;;5096379;28;20028;-72
2023/01/18 08:10:58;;;;;;;7.00;3.17;;;-0.40;75.90;;;;;;5071255;28;20040;-72
2023/01/18 08:13:25;;;;;;;5.20;2.55;;;-0.40;75.90;;;;;;5094817;28;20036;-72
2023/01/18 08:15:52;;;;;;;6.85;2.60;;;-0.40;75.90;;;;;;5092217;28;20027;-72
2023/01/18 08:18:18;;;;;;;4.63;2.85;;;-0.40;75.90;;;;;;5104165;28;20027;-65
2023/01/18 08:20:48;;;;;;;7.70;3.17;;;-0.40;75.90;;;;;;5099017;28;20052;-67
2023/01/18 08:23:15;;;;;;;5.93;2.95;;;-0.40;75.90;;;;;;5068980;28;20127;-75
2023/01/18 08:25:41;;;;;;;3.55;2.22;;;-0.40;76.00;;;;;;5091157;28;20031;-73
2023/01/18 08:28:07;;;;;;;5.13;3.15;;;-0.40;75.90;;;;;;5074631;28;20414;-71
2023/01/18 08:30:36;;;;;;;4.32;2.78;;;-0.30;75.90;;;;;;5102334;28;20032;-78
2023/01/18 08:33:03;;;;;;;2.45;2.20;;;-0.30;75.90;;;;;;5095993;28;20482;-70
2023/01/18 08:35:33;;;;;;;5.70;2.92;;;-0.30;75.90;;;;;;5081015;28;20020;-70
2023/01/18 08:38:00;;;;;;;4.47;2.78;;;-0.30;76.00;;;;;;5085122;28;20028;-72
2023/01/18 08:40:27;;;;;;;6.47;3.33;;;-0.30;76.00;;;;;;5086730;28;20027;-71
2023/01/18 08:43:01;;;;;;;3.50;2.47;;;-0.20;76.10;;;;;;5087891;28;21086;-70
2023/01/18 08:45:28;;;;;;;4.28;3.28;;;-0.20;76.10;;;;;;5091127;28;20035;-74
2023/01/18 08:48:20;;;;;;;4.55;2.72;;;-0.20;76.10;;;;;;5075833;28;20218;-75
2023/01/18 08:50:45;;;;;;;3.97;3.08;;;-0.20;76.20;;;;;;5080005;28;20035;-72
2023/01/18 08:53:12;;;;;;;2.85;2.03;;;-0.20;76.50;;;;;;5104201;28;20051;-68
2023/01/18 08:55:39;;;;;;;6.15;2.88;;;-0.20;76.40;;;;;;5067133;28;20043;-72
2023/01/18 08:58:05;;;;;;;3.35;2.55;;;-0.10;76.60;;;;;;5094028;28;20052;-72
2023/01/18 09:00:31;;;;;;;7.53;3.53;;;-0.10;76.60;;;;;;5084110;28;20043;-72
2023/01/18 09:03:00;;;;;;;6.30;2.97;;;0.00;76.50;;;;;;5090721;28;20413;-71
2023/01/18 09:05:27;;;;;;;3.28;2.45;;;0.20;76.50;;;;;;5091450;28;20032;-70
2023/01/18 09:07:53;;;;;;;4.50;3.33;;;0.30;76.30;;;;;;5089498;28;20073;-71
2023/01/18 09:10:21;;;;;;;6.00;3.10;;;0.40;76.30;;;;;;5098094;28;20074;-71
2023/01/18 09:12:47;;;;;;;4.88;1.98;;;0.50;76.30;;;;;;5092669;28;20107;-71
2023/01/18 09:15:13;;;;;;;6.75;2.42;;;0.60;76.50;;;;;;5094893;28;20033;-64
2023/01/18 09:17:38;;;;;;;5.80;2.58;;;0.70;76.40;;;;;;5077684;28;20023;-71
2023/01/18 09:20:08;;;;;;;4.32;2.58;;;0.70;76.50;;;;;;5091579;28;20106;-71
2023/01/18 09:22:37;;;;;;;4.55;2.78;;;0.80;76.30;;;;;;5063664;28;20029;-64
2023/01/18 09:25:04;;;;;;;3.78;2.90;;;0.90;76.30;;;;;;5097363;28;20032;-70
2023/01/18 09:27:30;;;;;;;3.33;2.72;;;1.00;76.40;;;;;;5092869;28;20103;-63
2023/01/18 09:29:56;;;;;;;5.60;3.60;;;1.10;76.50;;;;;;5093980;28;20115;-63
2023/01/18 09:32:24;;;;;;;8.00;3.63;;;1.20;76.80;;;;;;5096973;28;20436;-70
2023/01/18 09:34:50;;;;;;;5.10;3.47;;;1.30;76.80;;;;;;5095869;28;20031;-63
2023/01/18 09:37:19;;;;;;;6.32;3.78;;;1.30;77.10;;;;;;5100863;28;20089;-70
2023/01/18 09:39:44;;;;;;;5.40;3.60;;;1.40;77.10;;;;;;5094572;28;20090;-71
2023/01/18 09:42:26;;;;;;;6.40;3.05;;;1.50;77.00;;;;;;5098284;28;20024;-64
2023/01/18 09:44:57;;;;;;;7.88;3.70;;;1.50;77.20;;;;;;5100911;28;20032;-64
2023/01/18 09:47:30;;;;;;;6.68;2.90;;;1.60;77.20;;;;;;5095738;28;20477;-64
2023/01/18 09:49:58;;;;;;;6.03;3.58;;;1.70;77.20;;;;;;5087774;28;20026;-64
2023/01/18 09:53:00;;;;;;;3.55;2.85;;;1.80;77.10;;;;;;5102028;28;20028;-64
2023/01/18 09:55:44;;;;;;;5.70;3.17;;;2.00;76.80;;;;;;5096511;28;20019;-64
2023/01/18 09:58:29;;;;;;;4.70;3.70;;;2.20;76.50;;;;;;5097913;28;20089;-64
2023/01/18 10:01:01;;;;;;;5.70;3.30;;;2.30;76.30;;;;;;5099208;28;20027;-70
2023/01/18 10:03:42;;;;;;;5.57;3.53;;;2.30;76.50;;;;;;5085200;28;20040;-64
2023/01/18 10:06:16;;;;;;;4.82;3.75;;;2.40;76.60;;;;;;5091588;28;20458;-65
2023/01/18 10:08:53;;;;;;;6.55;3.08;;;2.50;76.60;;;;;;5092919;28;20036;-64
2023/01/18 10:11:30;;;;;;;4.15;2.92;;;2.70;76.40;;;;;;5094084;28;20072;-64
2023/01/18 10:14:12;;;;;;;4.50;2.80;;;2.90;76.10;;;;;;5086764;28;20021;-64
2023/01/18 10:16:38;;;;;;;7.63;3.72;;;3.00;75.80;;;;;;5098100;28;20055;-63
2023/01/18 10:19:14;;;;;;;4.68;3.58;;;3.00;75.60;;;;;;5079840;28;20045;-65
2023/01/18 10:22:02;;;;;;;7.10;3.75;;;3.10;75.60;;;;;;5069800;28;20036;-69
2023/01/18 10:24:52;;;;;;;4.40;3.45;;;3.20;75.60;;;;;;5078158;28;20012;-69
2023/01/18 10:27:37;;;;;;;5.88;3.55;;;3.30;75.60;;;;;;5067648;28;20032;-70
2023/01/18 10:30:24;;;;;;;7.90;4.63;;;3.40;75.40;;;;;;5075939;28;20081;-70
2023/01/18 10:32:56;;;;;;;5.50;3.40;;;3.60;75.00;;;;;;5094287;28;20035;-70
2023/01/18 10:35:30;;;;;;;5.50;4.13;;;3.80;75.10;;;;;;5078029;28;20024;-69
2023/01/18 10:38:00;;;;;;;4.03;3.30;;;4.40;75.80;;;;;;5072648;28;20029;-69
2023/01/18 10:40:26;;;;;;;4.80;3.20;;;6.20;73.00;;;;;;5075689;28;20468;-68
2023/01/18 10:42:55;;;;;;;8.07;3.67;;;8.30;67.20;;;;;;5068855;28;20075;-69
2023/01/18 10:45:28;;;;;;;5.43;2.85;;;9.30;62.50;;;;;;5070327;28;20032;-69
2023/01/18 10:47:56;;;;;;;6.40;3.90;;;10.50;59.00;;;;;;5076963;28;20021;-69
2023/01/18 10:50:36;;;;;;;7.25;3.72;;;11.70;55.70;;;;;;5077816;28;20425;-64
2023/01/18 10:53:22;;;;;;;4.03;3.30;;;12.80;53.60;;;;;;5078032;28;20056;-64
2023/01/18 10:56:03;;;;;;;6.63;3.20;;;14.00;50.20;;;;;;5059365;28;20089;-64
2023/01/18 10:58:32;;;;;;;3.92;3.20;;;15.00;48.40;;;;;;5068903;28;20029;-65
2023/01/18 11:01:00;;;;;;;6.50;2.58;;;15.80;46.40;;;;;;5075873;28;20017;-65
2023/01/18 11:03:27;;;;;;;2.72;2.47;;;16.30;44.90;;;;;;5070036;28;20032;-64
2023/01/18 11:06:03;;;;;;;2.97;2.20;;;16.90;43.50;;;;;;5066517;28;20042;-65
2023/01/18 11:08:34;;;;;;;7.72;2.67;;;16.90;42.80;;;;;;5084216;28;20031;-69
2023/01/18 11:11:00;;;;;;;3.33;2.45;;;16.60;43.40;;;;;;5082273;28;20417;-68
2023/01/18 11:13:43;;;;;;;6.45;2.70;;;16.30;43.50;;;;;;5078254;28;20027;-69
2023/01/18 11:16:12;;;;;;;5.60;3.10;;;16.70;43.50;;;;;;5079385;28;20036;-67
2023/01/18 11:18:54;;;;;;;3.85;2.40;;;17.40;42.10;;;;;;5080563;28;20044;-67
2023/01/18 11:21:20;;;;;;;2.90;1.88;;;18.00;40.70;;;;;;5081471;28;20482;-66
2023/01/18 11:23:45;;;;;;;3.13;2.05;;;18.30;39.60;;;;;;5108374;28;20034;-67
2023/01/18 11:26:16;;;;;;;4.97;2.60;;;18.20;39.40;;;;;;5096874;28;20034;-64
2023/01/18 11:28:53;;;;;;;3.92;2.35;;;18.50;39.80;;;;;;5085787;28;20039;-64
2023/01/18 11:31:21;;;;;;;3.22;1.95;;;18.70;39.00;;;;;;5074114;28;20048;-64
2023/01/18 11:34:01;;;;;;;4.15;2.83;;;19.20;38.70;;;;;;5074105;28;20055;-63
2023/01/18 11:36:32;;;;;;;4.47;2.80;;;19.50;37.60;;;;;;5080289;28;20075;-64
2023/01/18 11:39:26;;;;;;;5.25;2.83;;;19.40;36.90;;;;;;5088231;28;20028;-64
2023/01/18 11:42:12;;;;;;;4.00;2.20;;;19.20;36.60;;;;;;5083388;28;20028;-68
2023/01/18 11:44:57;;;;;;;3.58;2.65;;;19.00;37.20;;;;;;5077774;28;20027;-68
2023/01/18 11:47:31;;;;;;;6.95;2.83;;;19.40;37.10;;;;;;5092841;28;20063;-68
2023/01/18 11:50:21;;;;;;;4.95;2.08;;;20.10;37.00;;;;;;5092447;28;20484;-64
2023/01/18 11:53:13;;;;;;;5.05;2.47;;;21.00;35.70;;;;;;5086937;28;20543;-64
2023/01/18 11:56:21;;;;;;;3.28;2.30;;;20.90;34.60;;;;;;5074516;28;20388;-64
2023/01/18 11:58:48;;;;;;;2.47;2.08;;;20.00;34.90;;;;;;5065719;28;20060;-64
2023/01/18 12:01:32;;;;;;;2.92;2.15;;;19.60;35.90;;;;;;5083092;28;20033;-64
2023/01/18 12:04:02;;;;;;;4.47;2.10;;;19.70;35.70;;;;;;5081501;28;20387;-64
2023/01/18 12:06:37;;;;;;;5.15;2.20;;;19.70;35.30;;;;;;5087413;28;20024;-65
2023/01/18 12:09:38;;;;;;;3.78;2.42;;;20.00;35.70;;;;;;5081909;28;20050;-63
2023/01/18 12:12:14;;;;;;;3.53;2.00;;;20.50;35.10;;;;;;5078570;28;20032;-62
2023/01/18 12:15:24;;;;;;;3.58;1.92;;;20.90;35.10;;;;;;5088071;28;20113;-63
2023/01/18 12:17:55;;;;;;;2.25;2.03;;;21.50;34.50;;;;;;5086443;28;20753;-63
2023/01/18 12:20:54;;;;;;;3.63;2.13;;;21.60;33.80;;;;;;5089076;28;20055;-63
2023/01/18 12:23:34;;;;;;;3.45;2.42;;;21.30;34.00;;;;;;5059981;28;20036;-63
2023/01/18 12:26:17;;;;;;;2.05;1.80;;;21.10;33.40;;;;;;5086669;28;20072;-63
2023/01/18 12:29:22;;;;;;;3.30;2.67;;;21.10;33.90;;;;;;5092053;28;20028;-63
2023/01/18 12:32:32;;;;;;;3.30;1.80;;;21.40;33.40;;;;;;5087005;28;20376;-63
2023/01/18 12:35:03;;;;;;;3.33;2.00;;;21.10;32.90;;;;;;5067744;28;20090;-62
2023/01/18 12:37:44;;;;;;;2.78;1.95;;;20.60;33.40;;;;;;5074565;28;20464;-62
2023/01/18 12:40:41;;;;;;;4.40;2.40;;;20.00;34.50;;;;;;5088310;28;20459;-63
2023/01/18 12:43:18;;;;;;;4.32;2.38;;;19.90;34.10;;;;;;5078827;28;20490;-65
2023/01/18 12:46:01;;;;;;;3.30;2.05;;;19.80;35.10;;;;;;5080595;28;20025;-62
2023/01/18 12:48:39;;;;;;;1.83;1.70;;;19.60;34.40;;;;;;5095464;28;20024;-63
2023/01/18 12:51:11;;;;;;;2.67;1.90;;;18.70;35.20;;;;;;5074122;28;20030;-62
2023/01/18 12:53:49;;;;;;;2.88;1.90;;;17.50;37.20;;;;;;5090500;28;20047;-67
2023/01/18 12:56:38;;;;;;;6.40;1.92;;;16.40;38.70;;;;;;5086772;28;20554;-67
2023/01/18 12:59:07;;;;;;;2.20;1.88;;;15.70;40.70;;;;;;5078477;28;20039;-67
2023/01/18 13:01:40;;;;;;;3.60;1.80;;;15.90;40.70;;;;;;5092240;28;20031;-67
2023/01/18 13:04:13;;;;;;;2.53;1.67;;;16.20;40.10;;;;;;5099974;28;20028;-62
2023/01/18 13:06:40;;;;;;;2.85;1.58;;;16.20;40.20;;;;;;5084765;28;20023;-62
2023/01/18 13:09:15;;;;;;;2.33;1.52;;;16.00;40.50;;;;;;5104535;28;20375;-64
2023/01/18 13:11:42;;;;;;;3.47;1.73;;;15.80;40.90;;;;;;5081021;28;20027;-62
2023/01/18 13:14:10;;;;;;;3.58;2.05;;;15.40;41.10;;;;;;5080765;28;20478;-62
2023/01/18 13:16:43;;;;;;;2.70;1.90;;;15.00;41.80;;;;;;5071451;28;20020;-62
2023/01/18 13:19:11;;;;;;;;;;;14.60;42.30;;;;;;5075883;28;20499;-62
2023/01/18 13:22:01;;;;;;;2.10;1.73;;;14.60;43.00;;;;;;5093562;28;19953;-63
2023/01/18 13:24:35;;;;;;;2.88;1.50;;;14.70;42.40;;;;;;5097629;28;20466;-63
2023/01/18 13:27:10;;;;;;;2.78;2.08;;;14.50;42.80;;;;;;5088360;28;20017;-62
2023/01/18 13:29:36;;;;;;;5.35;2.00;;;14.20;42.70;;;;;;5096257;28;20039;-63
2023/01/18 13:32:03;;;;;;;3.63;2.00;;;14.00;43.80;;;;;;5098036;28;20028;-63
2023/01/18 13:34:36;;;;;;;2.72;1.90;;;13.90;44.10;;;;;;5088457;28;20037;-62
2023/01/18 13:37:05;;;;;;;5.55;2.00;;;13.80;44.20;;;;;;5094284;28;20505;-62
2023/01/18 13:39:34;;;;;;;2.13;1.80;;;13.50;44.80;;;;;;5077388;28;20467;-64
2023/01/18 13:42:02;;;;;;;3.30;1.70;;;13.90;44.70;;;;;;5093298;28;20386;-63
2023/01/18 13:44:38;;;;;;;3.42;1.40;;;13.60;44.80;;;;;;5093589;28;20028;-63
2023/01/18 13:47:41;;;;;;;6.05;1.70;;;13.90;45.10;;;;;;5089466;28;20390;-64
2023/01/18 13:50:38;;;;;;;4.07;1.83;;;14.60;43.80;;;;;;5088323;28;20379;-63
2023/01/18 13:53:13;;;;;;;5.07;1.83;;;15.50;41.70;;;;;;5076381;28;20032;-63